createdAt,value
2023-04-16T00:00:30.411Z,95724.7656
2023-04-16T00:01:32.042Z,95725.2344
2023-04-16T00:02:33.854Z,95725.4609
2023-04-16T00:03:35.551Z,95725.2344
2023-04-16T00:04:37.023Z,95725.3047
2023-04-16T00:05:38.664Z,95725.8438
2023-04-16T00:06:40.293Z,95726.0000
2023-04-16T00:07:41.900Z,95725.5391
2023-04-16T00:08:43.670Z,95725.1562
2023-04-16T00:09:45.203Z,95724.4609
2023-04-16T00:10:46.987Z,95724.2344
2023-04-16T00:11:48.583Z,95724.3047
2023-04-16T00:12:50.255Z,95723.7656
2023-04-16T00:13:51.865Z,95723.5391
2023-04-16T00:14:53.500Z,95723.3828
2023-04-16T00:15:55.229Z,95723.7656
2023-04-16T00:16:56.901Z,95724.9219
2023-04-16T00:17:58.558Z,95724.4609
2023-04-16T00:19:00.184Z,95724.7656
2023-04-16T00:20:01.861Z,95724.4609
2023-04-16T00:21:03.446Z,95724.8438
2023-04-16T00:22:05.102Z,95725.6953
2023-04-16T00:23:06.690Z,95725.6172
2023-04-16T00:24:08.340Z,95724.4609
2023-04-16T00:25:09.983Z,95724.2344
2023-04-16T00:26:11.693Z,95723.3828
2023-04-16T00:27:13.282Z,95722.7656
2023-04-16T00:28:14.927Z,95721.9219
2023-04-16T00:29:16.582Z,95721.0000
2023-04-16T00:30:18.236Z,95720.7656
2023-04-16T00:31:19.977Z,95721.8438
2023-04-16T00:32:21.547Z,95723.4609
2023-04-16T00:33:23.151Z,95723.4609
2023-04-16T00:34:24.803Z,95724.5391
2023-04-16T00:35:26.443Z,95725.2344
2023-04-16T00:36:28.161Z,95726.3047
2023-04-16T00:37:29.740Z,95726.3828
2023-04-16T00:38:31.466Z,95726.0781
2023-04-16T00:39:33.060Z,95725.6953
2023-04-16T00:40:34.743Z,95726.3047
2023-04-16T00:41:36.417Z,95725.9219
2023-04-16T00:42:38.014Z,95726.0000
2023-04-16T00:43:39.662Z,95725.2344
2023-04-16T00:44:41.327Z,95725.3828
2023-04-16T00:45:42.963Z,95725.4609
2023-04-16T00:46:44.753Z,95725.6172
2023-04-16T00:47:46.310Z,95725.5391
2023-04-16T00:48:47.900Z,95725.5391
2023-04-16T00:49:49.545Z,95726.0781
2023-04-16T00:50:51.199Z,95726.2344
2023-04-16T00:51:52.863Z,95726.0781
2023-04-16T00:52:54.476Z,95726.7656
2023-04-16T00:53:56.149Z,95726.6172
2023-04-16T00:54:57.766Z,95727.2344
2023-04-16T00:55:59.459Z,95726.8438
2023-04-16T00:57:01.083Z,95726.2344
2023-04-16T00:58:02.749Z,95726.4609
2023-04-16T00:59:04.443Z,95725.8438
2023-04-16T01:00:06.111Z,95726.3828
2023-04-16T01:01:07.845Z,95726.7656
2023-04-16T01:02:09.441Z,95726.7656
2023-04-16T01:03:11.116Z,95728.0000
2023-04-16T01:04:12.753Z,95729.8438
2023-04-16T01:05:14.287Z,95730.5391
2023-04-16T01:06:15.918Z,95730.8438
2023-04-16T01:07:17.565Z,95730.0781
2023-04-16T01:08:19.219Z,95730.0000
2023-04-16T01:09:20.845Z,95728.7656
2023-04-16T01:10:22.487Z,95728.4609
2023-04-16T01:11:24.165Z,95729.3828
2023-04-16T01:12:25.773Z,95729.2344
2023-04-16T01:13:27.411Z,95729.3047
2023-04-16T01:14:29.043Z,95729.7656
2023-04-16T01:15:30.727Z,95730.3828
2023-04-16T01:16:32.408Z,95731.0781
2023-04-16T01:17:34.058Z,95731.1562
2023-04-16T01:18:35.688Z,95732.0781
2023-04-16T01:19:37.285Z,95732.1562
2023-04-16T01:20:38.964Z,95732.9219
2023-04-16T01:21:40.607Z,95733.6172
2023-04-16T01:22:42.244Z,95734.0781
2023-04-16T01:23:43.904Z,95733.1562
2023-04-16T01:24:45.534Z,95732.6953
2023-04-16T01:25:47.208Z,95732.0000
2023-04-16T01:26:48.848Z,95731.3828
2023-04-16T01:27:50.474Z,95731.6172
2023-04-16T01:28:52.126Z,95731.3047
2023-04-16T01:29:53.768Z,95731.0781
2023-04-16T01:30:55.536Z,95730.7656
2023-04-16T01:31:57.061Z,95731.3047
2023-04-16T01:32:58.719Z,95732.0781
2023-04-16T01:34:00.331Z,95732.3828
2023-04-16T01:35:02.166Z,95733.3047
2023-04-16T01:36:03.636Z,95733.8438
2023-04-16T01:37:05.305Z,95735.0781
2023-04-16T01:38:06.905Z,95735.4609
2023-04-16T01:39:08.737Z,95736.0781
2023-04-16T01:40:10.189Z,95735.9219
2023-04-16T01:41:11.848Z,95736.5391
2023-04-16T01:42:13.543Z,95736.6953
2023-04-16T01:43:15.162Z,95736.7656
2023-04-16T01:44:16.766Z,95738.2344
2023-04-16T01:45:18.464Z,95739.2344
2023-04-16T01:46:20.145Z,95739.5391
2023-04-16T01:47:21.788Z,95739.8438
2023-04-16T01:48:23.366Z,95740.0781
2023-04-16T01:49:24.992Z,95741.9219
2023-04-16T01:50:26.677Z,95743.3047
2023-04-16T01:51:28.281Z,95743.7656
2023-04-16T01:52:29.986Z,95744.6172
2023-04-16T01:53:31.649Z,95744.6953
2023-04-16T01:54:33.324Z,95744.9219
2023-04-16T01:55:34.914Z,95745.5391
2023-04-16T01:56:36.566Z,95747.0000
2023-04-16T01:57:38.287Z,95748.4609
2023-04-16T01:58:39.865Z,95748.5391
2023-04-16T01:59:41.486Z,95750.0000
2023-04-16T02:00:43.264Z,95750.3828
2023-04-16T02:01:44.820Z,95751.7656
2023-04-16T02:02:46.702Z,95753.0781
2023-04-16T02:03:48.236Z,95753.3828
2023-04-16T02:04:49.801Z,95753.8438
2023-04-16T02:05:51.383Z,95754.3047
2023-04-16T02:06:53.075Z,95753.6953
2023-04-16T02:07:54.692Z,95754.5391
2023-04-16T02:08:56.306Z,95755.0781
2023-04-16T02:09:57.941Z,95755.4609
2023-04-16T02:10:59.572Z,95755.9219
2023-04-16T02:12:01.225Z,95756.9219
2023-04-16T02:13:02.909Z,95757.3047
2023-04-16T02:14:04.536Z,95756.8438
2023-04-16T02:15:06.181Z,95757.0000
2023-04-16T02:16:07.829Z,95756.9219
2023-04-16T02:17:09.443Z,95758.1562
2023-04-16T02:18:11.157Z,95757.9219
2023-04-16T02:19:12.810Z,95758.2344
2023-04-16T02:20:14.429Z,95759.5391
2023-04-16T02:21:16.041Z,95759.0000
2023-04-16T02:22:17.692Z,95758.7656
2023-04-16T02:23:19.405Z,95759.0000
2023-04-16T02:24:20.980Z,95760.3828
2023-04-16T02:25:22.623Z,95759.6172
2023-04-16T02:26:24.329Z,95759.3828
2023-04-16T02:27:25.920Z,95760.3047
2023-04-16T02:28:27.599Z,95759.8438
2023-04-16T02:29:29.184Z,95759.4609
2023-04-16T02:30:30.849Z,95758.9219
2023-04-16T02:31:32.514Z,95759.4609
2023-04-16T02:32:34.186Z,95758.6953
2023-04-16T02:33:35.833Z,95760.2344
2023-04-16T02:34:37.461Z,95760.4609
2023-04-16T02:35:39.131Z,95762.2344
2023-04-16T02:36:40.728Z,95761.6953
2023-04-16T02:37:42.372Z,95762.4609
2023-04-16T02:38:44.131Z,95763.0000
2023-04-16T02:39:45.708Z,95762.7656
2023-04-16T02:40:47.345Z,95762.1562
2023-04-16T02:41:48.963Z,95763.1562
2023-04-16T02:42:50.630Z,95763.0781
2023-04-16T02:43:52.301Z,95764.6172
2023-04-16T02:44:53.918Z,95763.7656
2023-04-16T02:45:55.538Z,95763.6953
2023-04-16T02:46:57.122Z,95763.5391
2023-04-16T02:47:58.820Z,95762.6172
2023-04-16T02:49:00.464Z,95763.9219
2023-04-16T02:50:02.049Z,95764.5391
2023-04-16T02:51:03.714Z,95764.0781
2023-04-16T02:52:05.393Z,95763.1562
2023-04-16T02:53:07.022Z,95762.8438
2023-04-16T02:54:08.695Z,95764.0000
2023-04-16T02:55:10.324Z,95764.9219
2023-04-16T02:56:11.955Z,95764.3047
2023-04-16T02:57:13.631Z,95764.2344
2023-04-16T02:58:15.230Z,95765.0000
2023-04-16T02:59:16.913Z,95764.0000
2023-04-16T03:00:18.547Z,95763.4609
2023-04-16T03:01:20.214Z,95763.3828
2023-04-16T03:02:22.272Z,95762.8438
2023-04-16T03:03:23.526Z,95763.3828
2023-04-16T03:04:25.169Z,95762.4609
2023-04-16T03:05:26.790Z,95761.3047
2023-04-16T03:06:28.429Z,95760.9219
2023-04-16T03:07:30.133Z,95761.4609
2023-04-16T03:08:31.690Z,95760.8438
2023-04-16T03:09:33.390Z,95761.6953
2023-04-16T03:10:35.029Z,95762.1562
2023-04-16T03:11:36.671Z,95761.3828
2023-04-16T03:12:38.313Z,95761.0000
2023-04-16T03:13:39.977Z,95761.0000
2023-04-16T03:14:41.670Z,95760.4609
2023-04-16T03:15:43.280Z,95761.1562
2023-04-16T03:16:44.962Z,95761.2344
2023-04-16T03:17:46.591Z,95761.3828
2023-04-16T03:18:48.175Z,95761.2344
2023-04-16T03:19:49.874Z,95761.5391
2023-04-16T03:20:51.468Z,95762.1562
2023-04-16T03:21:53.140Z,95761.8438
2023-04-16T03:22:54.799Z,95762.6953
2023-04-16T03:23:56.438Z,95763.1562
2023-04-16T03:24:58.115Z,95763.7656
2023-04-16T03:25:59.733Z,95764.0000
2023-04-16T03:27:01.381Z,95763.8438
2023-04-16T03:28:03.013Z,95764.1562
2023-04-16T03:29:04.672Z,95765.0000
2023-04-16T03:30:06.338Z,95765.0781
2023-04-16T03:31:07.965Z,95765.4609
2023-04-16T03:32:09.638Z,95766.0781
2023-04-16T03:33:11.417Z,95766.3047
2023-04-16T03:34:12.929Z,95767.5391
2023-04-16T03:35:14.604Z,95768.6172
2023-04-16T03:36:16.280Z,95768.6172
2023-04-16T03:37:17.918Z,95769.6172
2023-04-16T03:38:19.567Z,95769.5391
2023-04-16T03:39:21.282Z,95770.6172
2023-04-16T03:40:22.962Z,95771.2344
2023-04-16T03:41:24.540Z,95770.6953
2023-04-16T03:42:26.231Z,95770.3047
2023-04-16T03:43:27.866Z,95771.0000
2023-04-16T03:44:29.481Z,95771.3047
2023-04-16T03:45:31.233Z,95771.6172
2023-04-16T03:46:32.852Z,95772.5391
2023-04-16T03:47:34.463Z,95773.1562
2023-04-16T03:48:36.172Z,95773.4609
2023-04-16T03:49:37.732Z,95773.0781
2023-04-16T03:50:39.496Z,95772.9219
2023-04-16T03:51:41.052Z,95773.0781
2023-04-16T03:52:42.684Z,95773.6172
2023-04-16T03:53:44.322Z,95774.1562
2023-04-16T03:54:46.021Z,95774.0781
2023-04-16T03:55:47.683Z,95774.1562
2023-04-16T03:56:49.275Z,95774.3047
2023-04-16T03:57:50.933Z,95774.5391
2023-04-16T03:58:52.576Z,95775.3047
2023-04-16T03:59:54.215Z,95775.0000
2023-04-16T04:00:55.918Z,95775.5391
2023-04-16T04:01:57.712Z,95776.3047
2023-04-16T04:02:59.305Z,95775.7656
2023-04-16T04:04:00.971Z,95776.2344
2023-04-16T04:05:02.631Z,95775.4609
2023-04-16T04:06:04.150Z,95775.6953
2023-04-16T04:07:05.780Z,95775.1562
2023-04-16T04:08:07.416Z,95774.5391
2023-04-16T04:09:09.281Z,95774.2344
2023-04-16T04:10:10.718Z,95775.5391
2023-04-16T04:11:12.443Z,95775.3828
2023-04-16T04:12:14.018Z,95775.5391
2023-04-16T04:13:15.655Z,95774.8438
2023-04-16T04:14:17.297Z,95774.0781
2023-04-16T04:15:18.935Z,95774.3828
2023-04-16T04:16:20.665Z,95773.7656
2023-04-16T04:17:22.340Z,95773.5391
2023-04-16T04:18:23.855Z,95774.2344
2023-04-16T04:19:25.542Z,95774.3828
2023-04-16T04:20:27.188Z,95774.3047
2023-04-16T04:21:28.887Z,95774.1562
2023-04-16T04:22:30.478Z,95774.0000
2023-04-16T04:23:32.144Z,95774.0781
2023-04-16T04:24:33.811Z,95775.7656
2023-04-16T04:25:35.432Z,95775.9219
2023-04-16T04:26:37.226Z,95776.3047
2023-04-16T04:27:38.738Z,95776.2344
2023-04-16T04:28:40.310Z,95776.6172
2023-04-16T04:29:41.941Z,95777.0781
2023-04-16T04:30:43.625Z,95777.7656
2023-04-16T04:31:45.358Z,95779.1562
2023-04-16T04:32:46.940Z,95780.5391
2023-04-16T04:33:48.565Z,95781.7656
2023-04-16T04:34:50.386Z,95783.7656
2023-04-16T04:35:51.828Z,95785.5391
2023-04-16T04:36:53.521Z,95786.6953
2023-04-16T04:37:55.142Z,95787.3047
2023-04-16T04:38:56.808Z,95788.4609
2023-04-16T04:39:58.425Z,95789.3828
2023-04-16T04:41:00.148Z,95791.0781
2023-04-16T04:42:01.820Z,95791.3828
2023-04-16T04:43:03.397Z,95791.9219
2023-04-16T04:44:05.024Z,95793.3828
2023-04-16T04:45:06.687Z,95793.7656
2023-04-16T04:46:08.417Z,95794.4609
2023-04-16T04:47:10.000Z,95795.7656
2023-04-16T04:48:11.601Z,95796.7656
2023-04-16T04:49:13.262Z,95797.6172
2023-04-16T04:50:14.893Z,95798.2344
2023-04-16T04:51:16.545Z,95798.8438
2023-04-16T04:52:18.209Z,95799.3047
2023-04-16T04:53:19.827Z,95799.6953
2023-04-16T04:54:21.464Z,95800.7656
2023-04-16T04:55:23.121Z,95799.7656
2023-04-16T04:56:24.762Z,95800.8438
2023-04-16T04:57:26.442Z,95802.6953
2023-04-16T04:58:28.061Z,95803.3047
2023-04-16T04:59:29.721Z,95804.8438
2023-04-16T05:00:31.366Z,95805.7656
2023-04-16T05:01:33.190Z,95807.7656
2023-04-16T05:02:34.895Z,95809.5391
2023-04-16T05:03:37.207Z,95809.3828
2023-04-16T05:04:38.118Z,95810.0000
2023-04-16T05:05:39.738Z,95809.3047
2023-04-16T05:06:41.430Z,95808.3828
2023-04-16T05:07:43.064Z,95807.9219
2023-04-16T05:08:44.677Z,95807.6953
2023-04-16T05:09:46.332Z,95807.5391
2023-04-16T05:10:47.953Z,95807.5391
2023-04-16T05:11:49.596Z,95809.3047
2023-04-16T05:12:51.302Z,95810.3828
2023-04-16T05:13:52.975Z,95810.6172
2023-04-16T05:14:54.592Z,95811.0000
2023-04-16T05:15:56.212Z,95811.6172
2023-04-16T05:16:57.941Z,95812.5391
2023-04-16T05:17:59.602Z,95814.3828
2023-04-16T05:19:01.195Z,95816.0000
2023-04-16T05:20:02.789Z,95816.3047
2023-04-16T05:21:04.444Z,95816.1562
2023-04-16T05:22:06.072Z,95817.1562
2023-04-16T05:23:07.765Z,95817.0781
2023-04-16T05:24:09.328Z,95817.2344
2023-04-16T05:25:10.969Z,95817.3047
2023-04-16T05:26:12.604Z,95817.8438
2023-04-16T05:27:14.243Z,95819.2344
2023-04-16T05:28:15.899Z,95819.7656
2023-04-16T05:29:17.539Z,95821.3047
2023-04-16T05:30:19.176Z,95822.5391
2023-04-16T05:31:20.971Z,95821.8438
2023-04-16T05:32:22.504Z,95821.9219
2023-04-16T05:33:24.144Z,95822.6172
2023-04-16T05:34:25.772Z,95823.4609
2023-04-16T05:35:27.412Z,95823.6172
2023-04-16T05:36:29.131Z,95824.3828
2023-04-16T05:37:30.773Z,95826.0781
2023-04-16T05:38:32.497Z,95826.9219
2023-04-16T05:39:34.056Z,95827.7656
2023-04-16T05:40:35.634Z,95828.6172
2023-04-16T05:41:37.283Z,95829.2344
2023-04-16T05:42:38.911Z,95830.0781
2023-04-16T05:43:40.621Z,95830.5391
2023-04-16T05:44:42.240Z,95829.7656
2023-04-16T05:45:43.876Z,95829.5391
2023-04-16T05:46:45.520Z,95830.3828
2023-04-16T05:47:47.230Z,95830.1562
2023-04-16T05:48:48.831Z,95830.0000
2023-04-16T05:49:50.426Z,95830.5391
2023-04-16T05:50:52.089Z,95831.0781
2023-04-16T05:51:53.747Z,95833.0000
2023-04-16T05:52:55.388Z,95834.7656
2023-04-16T05:53:57.069Z,95836.7656
2023-04-16T05:54:58.690Z,95838.5391
2023-04-16T05:56:00.372Z,95839.3828
2023-04-16T05:57:02.036Z,95840.4609
2023-04-16T05:58:03.648Z,95841.4609
2023-04-16T05:59:05.310Z,95843.0781
2023-04-16T06:00:07.017Z,95843.9219
2023-04-16T06:01:08.615Z,95845.3047
2023-04-16T06:02:10.243Z,95846.6953
2023-04-16T06:03:12.041Z,95848.6953
2023-04-16T06:04:13.891Z,95849.1562
2023-04-16T06:05:15.281Z,95850.0781
2023-04-16T06:06:16.830Z,95850.4609
2023-04-16T06:07:18.458Z,95851.1562
2023-04-16T06:08:20.114Z,95852.2344
2023-04-16T06:09:21.827Z,95853.5391
2023-04-16T06:10:23.387Z,95853.6953
2023-04-16T06:11:24.996Z,95853.6953
2023-04-16T06:12:26.656Z,95854.6172
2023-04-16T06:13:28.300Z,95854.7656
2023-04-16T06:14:29.961Z,95856.1562
2023-04-16T06:15:31.590Z,95856.7656
2023-04-16T06:16:33.364Z,95857.6172
2023-04-16T06:17:34.937Z,95858.7656
2023-04-16T06:18:36.501Z,95858.8438
2023-04-16T06:19:38.177Z,95858.3828
2023-04-16T06:20:39.818Z,95859.6953
2023-04-16T06:21:41.458Z,95860.0781
2023-04-16T06:22:43.097Z,95859.5391
2023-04-16T06:23:44.770Z,95860.2344
2023-04-16T06:24:46.456Z,95859.3828
2023-04-16T06:25:48.038Z,95859.2344
2023-04-16T06:26:49.701Z,95860.5391
2023-04-16T06:27:51.374Z,95860.8438
2023-04-16T06:28:52.993Z,95861.5391
2023-04-16T06:29:54.688Z,95862.6172
2023-04-16T06:30:56.278Z,95863.2344
2023-04-16T06:31:57.894Z,95863.6172
2023-04-16T06:32:59.578Z,95864.8438
2023-04-16T06:34:01.257Z,95865.0000
2023-04-16T06:35:03.017Z,95865.4609
2023-04-16T06:36:04.524Z,95865.3047
2023-04-16T06:37:07.184Z,95867.0781
2023-04-16T06:38:07.825Z,95867.0000
2023-04-16T06:39:09.804Z,95868.7656
2023-04-16T06:40:11.129Z,95869.4609
2023-04-16T06:41:12.734Z,95870.5391
2023-04-16T06:42:14.403Z,95871.1562
2023-04-16T06:43:16.021Z,95870.3828
2023-04-16T06:44:17.691Z,95870.8438
2023-04-16T06:45:19.350Z,95871.2344
2023-04-16T06:46:20.999Z,95871.1562
2023-04-16T06:47:22.725Z,95871.6172
2023-04-16T06:48:24.340Z,95873.1562
2023-04-16T06:49:25.948Z,95874.2344
2023-04-16T06:50:27.648Z,95876.0781
2023-04-16T06:51:29.242Z,95877.2344
2023-04-16T06:52:30.899Z,95878.9219
2023-04-16T06:53:32.523Z,95880.8438
2023-04-16T06:54:34.162Z,95883.0781
2023-04-16T06:55:35.849Z,95883.1562
2023-04-16T06:56:37.435Z,95882.4609
2023-04-16T06:57:39.074Z,95883.3047
2023-04-16T06:58:40.735Z,95883.3828
2023-04-16T06:59:42.425Z,95884.7656
2023-04-16T07:00:44.141Z,95886.2344
2023-04-16T07:01:45.723Z,95886.0781
2023-04-16T07:02:47.512Z,95885.9219
2023-04-16T07:03:49.206Z,95885.3828
2023-04-16T07:04:50.599Z,95884.4609
2023-04-16T07:05:52.280Z,95883.6953
2023-04-16T07:06:53.885Z,95883.8438
2023-04-16T07:07:55.513Z,95884.3047
2023-04-16T07:08:57.185Z,95883.6953
2023-04-16T07:09:58.814Z,95883.6172
2023-04-16T07:11:00.486Z,95883.2344
2023-04-16T07:12:02.090Z,95885.4609
2023-04-16T07:13:03.750Z,95886.3047
2023-04-16T07:14:05.394Z,95887.3828
2023-04-16T07:15:07.025Z,95888.7656
2023-04-16T07:16:08.793Z,95889.5391
2023-04-16T07:17:10.364Z,95890.3047
2023-04-16T07:18:12.005Z,95889.7656
2023-04-16T07:19:13.608Z,95889.4609
2023-04-16T07:20:15.272Z,95890.2344
2023-04-16T07:21:16.951Z,95889.7656
2023-04-16T07:22:18.581Z,95890.6953
2023-04-16T07:23:20.201Z,95890.5391
2023-04-16T07:24:21.860Z,95891.1562
2023-04-16T07:25:23.548Z,95891.3828
2023-04-16T07:26:25.173Z,95891.3047
2023-04-16T07:27:26.787Z,95892.3828
2023-04-16T07:28:28.514Z,95892.5391
2023-04-16T07:29:30.108Z,95891.9219
2023-04-16T07:30:31.710Z,95891.5391
2023-04-16T07:31:33.348Z,95892.4609
2023-04-16T07:32:35.038Z,95892.6953
2023-04-16T07:33:36.566Z,95893.6172
2023-04-16T07:34:38.317Z,95894.6172
2023-04-16T07:35:39.862Z,95896.3828
2023-04-16T07:36:41.549Z,95896.1562
2023-04-16T07:37:43.150Z,95897.6953
2023-04-16T07:38:44.829Z,95898.2344
2023-04-16T07:39:46.465Z,95898.4609
2023-04-16T07:40:48.094Z,95900.3047
2023-04-16T07:41:49.803Z,95900.8438
2023-04-16T07:42:51.391Z,95901.6953
2023-04-16T07:43:53.038Z,95901.5391
2023-04-16T07:44:54.695Z,95901.9219
2023-04-16T07:45:56.468Z,95902.3828
2023-04-16T07:46:58.111Z,95901.6172
2023-04-16T07:47:59.880Z,95902.0000
2023-04-16T07:49:01.296Z,95903.4609
2023-04-16T07:50:02.908Z,95905.6172
2023-04-16T07:51:04.593Z,95905.6172
2023-04-16T07:52:06.231Z,95906.6172
2023-04-16T07:53:07.930Z,95908.0000
2023-04-16T07:54:09.502Z,95910.4609
2023-04-16T07:55:11.156Z,95912.0781
2023-04-16T07:56:12.798Z,95912.3047
2023-04-16T07:57:14.463Z,95913.3047
2023-04-16T07:58:16.106Z,95914.6172
2023-04-16T07:59:23.352Z,95914.4609
2023-04-16T08:00:19.384Z,95914.6172
2023-04-16T08:01:21.009Z,95916.5391
2023-04-16T08:02:22.828Z,95917.6172
2023-04-16T08:03:24.636Z,95918.2344
2023-04-16T08:04:26.536Z,95920.0000
2023-04-16T08:05:27.599Z,95921.8438
2023-04-16T08:06:29.222Z,95922.8438
2023-04-16T08:07:31.920Z,95923.1562
2023-04-16T08:08:32.514Z,95923.7656
2023-04-16T08:09:34.178Z,95924.6953
2023-04-16T08:10:35.821Z,95924.8438
2023-04-16T08:11:37.465Z,95925.6172
2023-04-16T08:12:39.131Z,95927.2344
2023-04-16T08:13:40.744Z,95928.3047
2023-04-16T08:14:42.382Z,95929.6172
2023-04-16T08:15:44.062Z,95930.7656
2023-04-16T08:16:45.735Z,95931.7656
2023-04-16T08:17:47.403Z,95931.4609
2023-04-16T08:18:49.172Z,95931.9219
2023-04-16T08:19:50.645Z,95932.1562
2023-04-16T08:20:52.281Z,95932.8438
2023-04-16T08:21:53.900Z,95934.5391
2023-04-16T08:22:55.608Z,95936.5391
2023-04-16T08:23:57.269Z,95936.2344
2023-04-16T08:24:58.864Z,95937.2344
2023-04-16T08:26:00.463Z,95939.0781
2023-04-16T08:27:11.448Z,95940.4609
2023-04-16T08:28:03.816Z,95942.0781
2023-04-16T08:29:05.414Z,95942.3047
2023-04-16T08:30:07.680Z,95941.7656
2023-04-16T08:31:08.783Z,95942.1562
2023-04-16T08:32:10.418Z,95942.9219
2023-04-16T08:33:12.124Z,95944.9219
2023-04-16T08:34:13.681Z,95945.0000
2023-04-16T08:35:15.321Z,95945.3047
2023-04-16T08:36:16.957Z,95946.1562
2023-04-16T08:37:18.608Z,95946.1562
2023-04-16T08:38:20.282Z,95946.1562
2023-04-16T08:39:21.923Z,95947.9219
2023-04-16T08:40:23.520Z,95948.7656
2023-04-16T08:41:25.171Z,95948.6172
2023-04-16T08:42:26.878Z,95950.6953
2023-04-16T08:43:28.481Z,95951.3828
2023-04-16T08:44:30.101Z,95953.0781
2023-04-16T08:45:31.743Z,95952.6953
2023-04-16T08:46:33.423Z,95952.5391
2023-04-16T08:47:35.057Z,95953.0000
2023-04-16T08:48:36.707Z,95952.7656
2023-04-16T08:49:38.308Z,95953.2344
2023-04-16T08:50:39.954Z,95952.6953
2023-04-16T08:51:41.605Z,95953.3828
2023-04-16T08:52:43.256Z,95953.9219
2023-04-16T08:53:44.927Z,95953.9219
2023-04-16T08:54:46.527Z,95954.1562
2023-04-16T08:55:48.192Z,95953.5391
2023-04-16T08:56:49.822Z,95955.4609
2023-04-16T08:57:51.464Z,95957.0000
2023-04-16T08:58:53.154Z,95955.8438
2023-04-16T08:59:54.762Z,95955.9219
2023-04-16T09:00:56.405Z,95957.4609
2023-04-16T09:01:58.249Z,95958.5391
2023-04-16T09:02:59.777Z,95959.8438
2023-04-16T09:04:01.685Z,95961.0000
2023-04-16T09:05:03.127Z,95961.3047
2023-04-16T09:06:04.686Z,95961.5391
2023-04-16T09:07:06.347Z,95961.5391
2023-04-16T09:08:08.006Z,95962.0000
2023-04-16T09:09:10.095Z,95963.8438
2023-04-16T09:10:11.298Z,95964.6172
2023-04-16T09:11:12.952Z,95966.4609
2023-04-16T09:12:14.553Z,95968.6953
2023-04-16T09:13:16.195Z,95970.0000
2023-04-16T09:14:17.878Z,95971.3828
2023-04-16T09:15:19.461Z,95971.4609
2023-04-16T09:16:21.099Z,95973.0000
2023-04-16T09:17:22.796Z,95974.1562
2023-04-16T09:18:24.345Z,95974.8438
2023-04-16T09:19:26.052Z,95975.0781
2023-04-16T09:20:27.661Z,95975.6172
2023-04-16T09:21:29.289Z,95975.9219
2023-04-16T09:22:30.898Z,95975.5391
2023-04-16T09:23:32.576Z,95975.8438
2023-04-16T09:24:34.218Z,95976.4609
2023-04-16T09:25:35.836Z,95977.9219
2023-04-16T09:26:37.474Z,95979.3828
2023-04-16T09:27:39.160Z,95979.3828
2023-04-16T09:28:40.756Z,95980.1562
2023-04-16T09:29:42.447Z,95979.7656
2023-04-16T09:30:44.055Z,95980.8438
2023-04-16T09:31:45.742Z,95981.3828
2023-04-16T09:32:47.367Z,95981.9219
2023-04-16T09:33:48.996Z,95982.6172
2023-04-16T09:34:50.696Z,95983.8438
2023-04-16T09:35:52.301Z,95984.6172
2023-04-16T09:36:53.954Z,95985.1562
2023-04-16T09:37:55.584Z,95985.4609
2023-04-16T09:38:57.844Z,95987.0000
2023-04-16T09:39:58.900Z,95987.4609
2023-04-16T09:41:00.503Z,95987.2344
2023-04-16T09:42:02.361Z,95988.0781
2023-04-16T09:43:03.778Z,95988.9219
2023-04-16T09:44:05.523Z,95990.5391
2023-04-16T09:45:07.079Z,95991.0000
2023-04-16T09:46:08.836Z,95991.0000
2023-04-16T09:47:10.348Z,95990.9219
2023-04-16T09:48:12.003Z,95991.5391
2023-04-16T09:49:13.626Z,95991.6953
2023-04-16T09:50:17.722Z,95991.5391
2023-04-16T09:51:16.911Z,95992.9219
2023-04-16T09:52:18.715Z,95993.2344
2023-04-16T09:53:20.207Z,95994.7656
2023-04-16T09:54:21.875Z,95994.7656
2023-04-16T09:55:23.542Z,95995.3047
2023-04-16T09:56:25.132Z,95997.0781
2023-04-16T09:57:26.807Z,95997.1562
2023-04-16T09:58:28.438Z,95997.4609
2023-04-16T09:59:30.199Z,95997.8438
2023-04-16T10:00:31.829Z,95998.9219
2023-04-16T10:01:33.407Z,95999.6953
2023-04-16T10:02:35.077Z,96000.5391
2023-04-16T10:03:37.021Z,95999.9219
2023-04-16T10:04:38.349Z,96001.2344
2023-04-16T10:05:39.986Z,96000.3047
2023-04-16T10:06:41.595Z,96001.4609
2023-04-16T10:07:43.260Z,96001.8438
2023-04-16T10:08:44.892Z,96002.8438
2023-04-16T10:09:46.529Z,96003.9219
2023-04-16T10:10:48.232Z,96003.7656
2023-04-16T10:11:49.810Z,96003.0781
2023-04-16T10:12:51.478Z,96004.0000
2023-04-16T10:13:53.181Z,96003.6172
2023-04-16T10:14:54.822Z,96002.3828
2023-04-16T10:15:56.536Z,96002.5391
2023-04-16T10:16:58.129Z,96002.4609
2023-04-16T10:17:59.846Z,96003.7656
2023-04-16T10:19:01.446Z,96005.5391
2023-04-16T10:20:03.051Z,96006.0000
2023-04-16T10:21:04.728Z,96006.9219
2023-04-16T10:22:06.398Z,96007.3047
2023-04-16T10:23:07.991Z,96007.3047
2023-04-16T10:24:09.638Z,96007.3828
2023-04-16T10:25:11.362Z,96006.6953
2023-04-16T10:26:12.986Z,96006.6953
2023-04-16T10:27:14.558Z,96006.0781
2023-04-16T10:28:16.199Z,96005.7656
2023-04-16T10:29:17.854Z,96005.3047
2023-04-16T10:30:19.497Z,96005.5391
2023-04-16T10:31:21.253Z,96005.8438
2023-04-16T10:32:22.822Z,96005.5391
2023-04-16T10:33:24.417Z,96005.4609
2023-04-16T10:34:26.039Z,96005.6953
2023-04-16T10:35:27.771Z,96005.3828
2023-04-16T10:36:29.389Z,96004.3828
2023-04-16T10:37:30.974Z,96003.5391
2023-04-16T10:38:32.658Z,96003.8438
2023-04-16T10:39:34.253Z,96004.0781
2023-04-16T10:40:35.935Z,96004.0000
2023-04-16T10:41:37.670Z,96003.1562
2023-04-16T10:42:39.180Z,96003.9219
2023-04-16T10:43:40.838Z,96005.0000
2023-04-16T10:44:45.229Z,96005.4609
2023-04-16T10:45:44.120Z,96006.4609
2023-04-16T10:46:45.809Z,96006.3828
2023-04-16T10:47:47.463Z,96007.2344
2023-04-16T10:48:50.652Z,96006.0000
2023-04-16T10:49:50.694Z,96005.3828
2023-04-16T10:50:52.314Z,96006.0000
2023-04-16T10:51:54.011Z,96006.0000
2023-04-16T10:52:55.595Z,96005.1562
2023-04-16T10:53:57.251Z,96005.3047
2023-04-16T10:54:58.918Z,96004.4609
2023-04-16T10:56:00.509Z,96004.0781
2023-04-16T10:57:03.773Z,96003.6172
2023-04-16T10:58:03.881Z,96003.7656
2023-04-16T10:59:05.426Z,96004.3828
2023-04-16T11:00:07.085Z,96004.3828
2023-04-16T11:01:08.709Z,96005.0781
2023-04-16T11:02:10.583Z,96004.9219
2023-04-16T11:03:12.125Z,96006.0781
2023-04-16T11:04:13.713Z,96005.6953
2023-04-16T11:05:15.267Z,96006.3047
2023-04-16T11:06:16.899Z,96005.8438
2023-04-16T11:07:18.576Z,96006.6953
2023-04-16T11:08:20.107Z,96006.3047
2023-04-16T11:09:21.708Z,96005.1562
2023-04-16T11:10:23.387Z,96005.0781
2023-04-16T11:11:25.242Z,96004.5391
2023-04-16T11:12:26.674Z,96004.6172
2023-04-16T11:13:28.292Z,96004.4609
2023-04-16T11:14:29.911Z,96004.3828
2023-04-16T11:15:31.529Z,96004.2344
2023-04-16T11:16:33.356Z,96002.9219
2023-04-16T11:17:34.901Z,96003.6172
2023-04-16T11:18:36.492Z,96005.3047
2023-04-16T11:19:38.122Z,96005.5391
2023-04-16T11:20:39.757Z,96006.4609
2023-04-16T11:21:41.398Z,96007.2344
2023-04-16T11:22:43.048Z,96007.6953
2023-04-16T11:23:44.692Z,96008.2344